Airfield :
LOGIN :

Register | Disclaimer

   EN    FR    IT 

 










Legend :    VFR   Marginal VFR   IFR   Intensive IFR   Very Intensive IFR
Visi :
Ceiling :
>= 8 km
>= 3000ft
5 to 8 km
1000 to 3000 ft
1500m to 5 km
500 to 1000 ft
800 to 1500m
200 to 500 ft
< 800m
< 200 ft
Symbols :   Thunderstorms  Fog  Heavy snow  Heavy precipitations  Wind > 20 kt
SIGMETs :     Misc.  Thunderstorms  Icing  Turbulence  Mountain Waves  Volcanic Ashes







- Airport Elevation : 255 ft


ENGC - Gullfaks C oil platform

CURRENT METAR :
  • 191620Z 27018KT 1500 -DZ BR BKN004 11/11 Q1022 W10/S4

EXPIRED METARs :
  • 191550Z 26019KT 0600 FG OVC004 11/11 Q1022 W10/S4
  • 191520Z 23024KT 0800 FG OVC003 10/10 Q1022 W10/S4
  • 191450Z 21026KT 1500 -DZ BR OVC004 09/09 Q1022 W09/S4
  • 191420Z 20026KT 2500 -RA BR OVC004 09/08 Q1022 W08/S4
  • 191350Z 20027KT 4000 -DZ BR OVC005 08/08 Q1023 W08/S4

TAF ENGC
Valid from the 19 at 15:00 until the 20 at 15:00 UTC


1915/2015 20025KT 3500 -DZ BR BKN005
BECMG 1915/1917 27020KT 0200 FG VV001
TEMPO 1917/1924 2500 DZ BR BKN004
BECMG 2000/2003 9000 NSW BKN012
No reported NOTAMs for that airfield.



MET'MAP, your aeronautical weather chart ! - Copyright ORBIFLY December 2007 - Disclaimer

ORBIFLY MET'MAP TEAM :

Programming & Development : Alexandra Zaïnal
Concept & Development : Baudouin d'Aumeries
Co-Development & Prog : Marc-Olivier Méhu
Technical & hardware support : Manuel Goepfert

Contact : metmap@orbifly.com




SOURCES & CREDITS :

   NOAA